Time;durP1;ratioP1;P1;durP2;ratioP2;P2;SDS_P1;SDS_P2;PMS_P1;PMS_P2;Temp;Humidity;BMP_temperature;BMP_pressure;BME280_temperature;BME280_humidity;BME280_pressure;Samples;Min_cycle;Max_cycle;Signal;HPM_P1;HPM_P2
2021/11/04 00:00:23;;;;;;;2.37;1.40;;;8.40;89.70;;;8.69;65.43;96032.59;4952562;29;20059;-46
2021/11/04 00:02:52;;;;;;;1.63;1.50;;;8.40;89.40;;;8.66;65.48;96052.34;4953726;28;20671;-46
2021/11/04 00:05:19;;;;;;;2.33;1.80;;;8.30;90.60;;;8.69;65.65;96057.28;4952153;28;20061;-47
2021/11/04 00:07:50;;;;;;;2.27;1.63;;;8.30;90.70;;;8.71;65.60;96059.78;4952410;29;20051;-48
2021/11/04 00:10:20;;;;;;;2.03;1.27;;;8.40;90.80;;;8.71;65.67;96075.69;4953086;29;20063;-46
2021/11/04 00:12:49;;;;;;;2.50;2.17;;;8.40;90.80;;;8.72;65.76;96067.50;4954229;29;20391;-46
2021/11/04 00:15:17;;;;;;;2.33;1.80;;;8.40;90.70;;;8.73;65.54;96073.66;4966802;28;20062;-48
2021/11/04 00:17:45;;;;;;;1.93;1.50;;;8.40;91.40;;;8.76;65.66;96073.28;4953792;28;20195;-46
2021/11/04 00:20:15;;;;;;;2.57;2.03;;;8.50;90.60;;;8.78;65.70;96055.31;4953861;28;20059;-48
2021/11/04 00:22:45;;;;;;;1.83;1.57;;;8.50;90.40;;;8.77;65.75;96053.69;4969219;28;20061;-46
2021/11/04 00:25:13;;;;;;;2.33;1.60;;;8.40;90.40;;;8.78;65.65;96057.97;4953154;29;20257;-47
2021/11/04 00:27:41;;;;;;;2.37;1.57;;;8.40;90.60;;;8.77;65.67;96049.22;4953887;28;20453;-49
2021/11/04 00:30:12;;;;;;;3.17;1.73;;;8.40;90.80;;;8.72;65.60;96043.63;4952776;28;20077;-47
2021/11/04 00:32:53;;;;;;;4.03;1.67;;;8.30;91.10;;;8.72;65.62;96037.50;4952388;28;20250;-48
2021/11/04 00:35:22;;;;;;;2.90;1.60;;;8.40;91.10;;;8.69;65.67;96036.06;4968558;28;20055;-49
2021/11/04 00:37:51;;;;;;;3.10;1.73;;;8.30;91.20;;;8.63;65.78;96026.22;4951947;29;20249;-48
2021/11/04 00:40:21;;;;;;;3.07;1.80;;;8.20;91.50;;;8.62;65.95;96028.03;4953878;28;20256;-47
2021/11/04 00:42:50;;;;;;;3.10;1.93;;;8.20;91.60;;;8.47;66.12;96011.34;4953580;28;20346;-46
2021/11/04 00:45:18;;;;;;;2.80;1.87;;;8.00;92.70;;;8.40;66.24;96005.13;4954273;28;20394;-46
2021/11/04 00:47:46;;;;;;;2.43;1.63;;;8.00;92.70;;;8.41;66.40;96014.72;4952697;28;20055;-47
2021/11/04 00:50:14;;;;;;;2.37;1.90;;;8.00;93.20;;;8.42;66.47;96030.47;4953359;28;20257;-47
2021/11/04 00:52:42;;;;;;;3.80;1.70;;;8.00;93.20;;;8.46;66.31;96034.41;4951553;28;20057;-49
2021/11/04 00:55:10;;;;;;;2.57;2.00;;;8.10;93.50;;;8.45;66.91;96046.03;4949545;28;20055;-47
2021/11/04 00:57:39;;;;;;;3.07;2.20;;;8.10;93.50;;;8.51;66.91;96054.22;4951190;28;20070;-47
2021/11/04 01:00:12;;;;;;;3.50;2.10;;;8.20;93.60;;;8.56;66.83;96065.91;4951632;28;20055;-47
2021/11/04 01:02:42;;;;;;;3.47;2.23;;;8.30;93.60;;;8.60;66.94;96074.34;4948649;29;20058;-46
2021/11/04 01:05:10;;;;;;;2.93;2.60;;;8.30;94.10;;;8.62;66.93;96085.56;4950309;29;20081;-49
2021/11/04 01:07:38;;;;;;;3.43;2.00;;;8.30;94.50;;;8.63;67.18;96096.00;4949024;29;20053;-51
2021/11/04 01:10:07;;;;;;;3.30;1.90;;;8.30;94.40;;;8.64;67.27;96089.69;4949459;29;20065;-47
2021/11/04 01:12:35;;;;;;;2.83;2.10;;;8.30;94.70;;;8.62;67.44;96094.34;4949634;29;20043;-48
2021/11/04 01:15:04;;;;;;;2.90;2.20;;;8.30;95.30;;;8.56;67.75;96096.94;4947778;28;20059;-47
2021/11/04 01:17:33;;;;;;;3.90;2.37;;;8.10;96.10;;;8.48;67.85;96103.16;4947879;28;20059;-48
2021/11/04 01:20:03;;;;;;;2.90;2.30;;;8.00;96.10;;;8.21;68.62;96104.63;4949791;29;20350;-46
2021/11/04 01:22:31;;;;;;;3.07;2.30;;;7.80;97.40;;;7.87;68.88;96104.19;4948377;29;20058;-48
2021/11/04 01:24:58;;;;;;;2.67;2.03;;;7.40;98.90;;;7.81;69.11;96102.25;4948589;29;20057;-46
2021/11/04 01:27:27;;;;;;;3.90;2.37;;;7.40;98.80;;;7.77;69.40;96098.31;4949608;29;20059;-47
2021/11/04 01:29:55;;;;;;;2.90;2.40;;;7.30;99.60;;;7.67;69.99;96106.50;4948616;29;20249;-46
2021/11/04 01:32:24;;;;;;;3.10;2.30;;;7.30;99.90;;;7.49;70.30;96096.25;4950567;29;20548;-47
2021/11/04 01:34:52;;;;;;;2.37;2.00;;;7.00;99.90;;;7.44;70.09;96095.16;4950163;29;20058;-46
2021/11/04 01:37:19;;;;;;;3.30;2.50;;;7.00;99.90;;;7.52;69.57;96094.25;4949587;28;20051;-47
2021/11/04 01:39:47;;;;;;;3.70;2.00;;;7.10;99.90;;;7.39;69.67;96103.66;4949402;29;20558;-47
2021/11/04 01:42:17;;;;;;;2.70;1.90;;;7.00;99.20;;;7.17;70.68;96092.06;4949324;29;20429;-51
2021/11/04 01:44:46;;;;;;;2.50;1.77;;;6.80;99.30;;;6.92;70.46;96080.03;4946111;29;20063;-48
2021/11/04 01:47:14;;;;;;;1.90;1.30;;;6.60;99.50;;;7.02;70.44;96070.88;4948499;28;20269;-47
2021/11/04 01:49:42;;;;;;;2.00;1.57;;;6.70;99.60;;;6.78;70.56;96066.56;4948124;29;20250;-47
2021/11/04 01:52:11;;;;;;;2.07;1.50;;;6.50;99.40;;;6.90;70.61;96062.53;4949445;28;20070;-46
2021/11/04 01:54:40;;;;;;;2.87;1.70;;;6.60;99.70;;;6.87;70.36;96064.69;4948679;29;20055;-48
2021/11/04 01:57:08;;;;;;;2.83;1.50;;;6.60;99.60;;;6.93;70.09;96063.97;4948562;29;20073;-49
2021/11/04 01:59:36;;;;;;;1.90;1.47;;;6.60;98.20;;;6.95;69.95;96064.63;4949817;29;20061;-49
2021/11/04 02:02:19;;;;;;;2.20;1.40;;;6.70;98.60;;;6.59;70.37;96067.00;4948422;28;20063;-47
2021/11/04 02:04:58;;;;;;;1.87;1.40;;;6.50;97.80;;;6.70;70.42;96070.06;4978467;28;20059;-47
2021/11/04 02:08:07;;;;;;;2.37;1.70;;;6.50;97.70;;;6.73;70.42;96061.00;4947326;29;20059;-47
2021/11/04 02:10:48;;;;;;;2.50;1.70;;;6.40;98.30;;;6.88;70.14;96058.38;4948129;28;20425;-48
2021/11/04 02:13:46;;;;;;;1.53;1.20;;;6.60;98.50;;;6.76;69.54;96065.91;4947355;29;20078;-47
2021/11/04 02:16:16;;;;;;;2.67;1.67;;;6.50;97.80;;;6.73;69.83;96073.38;4949025;29;20070;-46
2021/11/04 02:18:47;;;;;;;2.43;1.63;;;6.50;97.20;;;6.72;70.10;96077.03;4948708;29;20255;-47
2021/11/04 02:21:38;;;;;;;2.20;1.63;;;6.50;96.20;;;6.87;69.47;96080.56;4948488;28;20057;-46
2021/11/04 02:24:49;;;;;;;2.30;1.40;;;6.50;97.00;;;6.44;69.72;96083.63;4947459;29;20066;-48
2021/11/04 02:27:19;;;;;;;1.90;1.30;;;6.40;95.40;;;6.69;69.22;96097.53;4948875;29;20379;-49
2021/11/04 02:29:47;;;;;;;2.50;1.93;;;6.40;97.80;;;6.66;68.93;96097.88;4946716;29;20051;-46
2021/11/04 02:32:15;;;;;;;1.53;1.13;;;6.40;96.00;;;6.80;69.45;96106.06;4946554;29;20061;-49
2021/11/04 02:34:43;;;;;;;2.23;1.43;;;6.50;95.70;;;6.72;69.27;96103.47;4948974;29;20051;-47
2021/11/04 02:37:11;;;;;;;1.77;1.40;;;6.40;96.10;;;6.49;69.47;96110.38;4946509;29;20055;-46
2021/11/04 02:39:39;;;;;;;1.80;1.20;;;6.30;95.20;;;6.43;69.14;96107.59;4946588;28;20078;-47
2021/11/04 02:42:08;;;;;;;2.57;1.63;;;6.20;95.90;;;6.46;69.31;96108.06;4948390;28;20241;-46
2021/11/04 02:44:36;;;;;;;1.87;1.30;;;6.10;96.90;;;6.58;69.05;96110.34;4946539;29;20067;-47
2021/11/04 02:47:05;;;;;;;2.00;1.40;;;6.30;96.90;;;6.53;69.83;96110.03;4946106;29;20253;-50
2021/11/04 02:49:36;;;;;;;1.97;1.50;;;6.20;96.60;;;6.66;69.75;96112.94;4947289;29;20047;-45
2021/11/04 02:52:05;;;;;;;2.03;1.20;;;6.40;96.50;;;6.68;69.28;96117.03;4947329;28;20055;-47
2021/11/04 02:54:33;;;;;;;2.13;1.93;;;6.40;95.20;;;6.59;69.32;96111.97;4947307;29;20055;-46
2021/11/04 02:57:01;;;;;;;1.57;1.10;;;6.30;96.10;;;6.60;68.99;96118.91;4946229;29;20055;-49
2021/11/04 02:59:29;;;;;;;1.43;1.10;;;6.30;96.20;;;6.56;69.34;96118.44;4946652;29;20058;-48
2021/11/04 03:02:00;;;;;;;4.07;1.50;;;6.30;96.10;;;6.46;69.82;96121.28;4947259;29;20055;-49
2021/11/04 03:04:28;;;;;;;2.10;1.40;;;6.20;96.20;;;6.55;69.05;96114.13;4945860;28;20369;-48
2021/11/04 03:06:55;;;;;;;2.20;1.40;;;6.30;96.20;;;6.51;69.58;96107.53;4947710;29;20065;-46
2021/11/04 03:09:23;;;;;;;2.53;1.50;;;6.30;95.60;;;6.33;68.89;96113.09;4948360;28;20051;-46
2021/11/04 03:11:51;;;;;;;6.43;1.40;;;6.10;95.60;;;6.33;69.71;96112.28;4947542;29;20067;-46
2021/11/04 03:14:19;;;;;;;1.40;1.20;;;6.10;96.00;;;6.29;69.07;96123.19;4947450;29;20245;-47
2021/11/04 03:16:52;;;;;;;1.90;1.20;;;6.10;96.10;;;6.26;69.61;96117.41;4946534;28;20054;-47
2021/11/04 03:19:22;;;;;;;2.50;1.50;;;6.00;96.20;;;6.41;69.59;96118.34;4961888;28;20051;-47
2021/11/04 03:21:54;;;;;;;1.40;1.27;;;6.20;96.00;;;6.42;68.70;96113.91;4964813;28;20068;-48
2021/11/04 03:24:26;;;;;;;2.20;1.40;;;6.20;95.90;;;6.40;69.32;96121.19;4967008;28;20057;-48
2021/11/04 03:27:07;;;;;;;1.57;1.20;;;6.10;96.20;;;6.48;69.14;96113.19;4964935;28;20065;-47
2021/11/04 03:29:41;;;;;;;1.83;1.40;;;6.20;96.10;;;6.48;68.88;96118.47;4965637;28;20058;-47
2021/11/04 03:32:21;;;;;;;2.03;1.30;;;6.20;95.30;;;6.41;69.26;96115.69;4967110;28;20070;-46
2021/11/04 03:34:50;;;;;;;1.57;1.00;;;6.20;96.00;;;6.35;68.92;96112.94;4965854;28;20057;-46
2021/11/04 03:37:20;;;;;;;1.47;1.17;;;6.00;95.80;;;6.34;69.57;96117.41;4967339;28;20253;-47
2021/11/04 03:39:49;;;;;;;1.37;0.97;;;6.10;95.80;;;6.40;68.90;96111.41;4966785;28;20051;-50
2021/11/04 03:42:17;;;;;;;1.60;1.27;;;6.10;95.60;;;6.44;69.19;96114.53;4964683;28;20222;-47
2021/11/04 03:44:45;;;;;;;1.73;1.33;;;6.10;96.10;;;6.49;69.29;96107.75;4964794;28;20061;-47
2021/11/04 03:47:16;;;;;;;1.83;1.40;;;6.20;96.00;;;6.33;68.94;96110.44;4965276;28;20050;-48
2021/11/04 03:49:50;;;;;;;1.63;1.30;;;6.20;95.10;;;6.47;68.84;96100.97;4964018;28;20065;-48
2021/11/04 03:52:19;;;;;;;1.87;1.40;;;6.20;96.20;;;6.34;69.49;96101.53;4966343;28;20088;-50
2021/11/04 03:54:48;;;;;;;2.03;1.40;;;6.10;95.60;;;6.49;69.56;96098.97;4966106;28;20642;-47
2021/11/04 03:57:18;;;;;;;2.37;1.63;;;6.20;95.80;;;6.51;69.57;96096.97;4964828;28;20063;-47
2021/11/04 03:59:46;;;;;;;2.80;1.87;;;6.20;95.70;;;6.40;68.80;96097.38;4966202;28;20055;-50
2021/11/04 04:02:14;;;;;;;2.93;2.00;;;6.20;95.30;;;6.39;69.09;96096.53;4965368;28;20055;-49
2021/11/04 04:04:55;;;;;;;2.63;1.70;;;6.10;95.80;;;6.18;69.43;96094.47;4965429;28;20058;-47
2021/11/04 04:07:28;;;;;;;2.90;2.07;;;6.00;95.80;;;6.34;69.93;96098.91;4965981;28;20066;-48
2021/11/04 04:09:57;;;;;;;4.07;1.93;;;6.00;97.20;;;6.45;69.09;96101.13;4966285;28;20380;-49
2021/11/04 04:12:26;;;;;;;2.70;2.10;;;6.10;96.40;;;6.46;69.55;96100.16;4966280;28;20361;-48
2021/11/04 04:14:55;;;;;;;2.93;1.90;;;6.10;96.70;;;6.50;69.68;96100.63;4965600;28;20212;-46
2021/11/04 04:17:24;;;;;;;3.13;2.53;;;6.20;96.10;;;6.58;69.04;96107.69;4964701;28;20368;-47
2021/11/04 04:19:52;;;;;;;2.40;1.97;;;6.20;96.00;;;6.65;68.67;96105.97;4967461;28;20058;-47
2021/11/04 04:22:21;;;;;;;2.93;1.90;;;6.40;96.30;;;6.66;68.84;96108.44;4965684;28;20250;-47
2021/11/04 04:24:49;;;;;;;3.97;3.27;;;6.40;95.30;;;6.70;68.59;96109.75;4965642;28;20057;-47
2021/11/04 04:27:17;;;;;;;3.70;2.90;;;6.40;95.80;;;6.72;68.72;96116.69;4967224;28;20545;-47
2021/11/04 04:29:45;;;;;;;3.37;2.53;;;6.50;94.50;;;6.70;68.88;96116.88;4968505;28;20443;-47
2021/11/04 04:32:14;;;;;;;2.50;2.00;;;6.40;93.90;;;6.68;68.53;96116.22;4968803;28;20062;-48
2021/11/04 04:34:42;;;;;;;3.03;2.47;;;6.40;94.60;;;6.69;68.65;96121.34;4970261;28;20052;-46
2021/11/04 04:37:10;;;;;;;2.60;1.80;;;6.30;95.00;;;6.72;68.57;96125.44;4968999;28;20054;-46
2021/11/04 04:39:38;;;;;;;2.47;1.90;;;6.40;95.30;;;6.75;68.88;96133.06;4968689;28;20414;-47
2021/11/04 04:42:08;;;;;;;2.93;2.10;;;6.50;95.10;;;6.75;68.40;96133.06;4969681;28;20043;-48
2021/11/04 04:44:37;;;;;;;2.17;1.70;;;6.50;94.50;;;6.80;68.95;96135.97;4969508;28;20222;-46
2021/11/04 04:47:05;;;;;;;2.40;1.80;;;6.50;94.70;;;6.87;68.29;96141.41;4968942;28;20065;-47
2021/11/04 04:49:33;;;;;;;2.17;1.73;;;6.60;94.80;;;6.94;68.27;96141.53;4969856;28;20072;-48
2021/11/04 04:52:01;;;;;;;2.63;1.87;;;6.70;93.80;;;6.95;68.06;96140.53;4969605;28;20055;-46
2021/11/04 04:54:30;;;;;;;2.47;1.63;;;6.70;93.90;;;6.78;68.02;96143.25;4969460;28;20450;-48
2021/11/04 04:56:58;;;;;;;1.87;1.60;;;6.60;92.20;;;6.87;68.41;96136.94;4967611;28;20063;-47
2021/11/04 04:59:25;;;;;;;2.23;2.03;;;6.60;94.10;;;6.88;68.50;96143.03;4967653;28;20068;-48
2021/11/04 05:01:53;;;;;;;2.97;2.10;;;6.60;93.90;;;6.87;67.83;96147.53;4968663;28;20057;-46
2021/11/04 05:04:21;;;;;;;3.10;2.00;;;6.60;93.10;;;6.89;68.31;96155.28;4969357;28;20072;-46
2021/11/04 05:06:49;;;;;;;2.50;1.43;;;6.60;93.70;;;6.92;67.67;96157.59;4968286;28;20469;-46
2021/11/04 05:09:17;;;;;;;2.90;1.83;;;6.70;93.90;;;6.97;68.45;96162.34;4967311;28;20055;-48
2021/11/04 05:11:45;;;;;;;2.27;1.77;;;6.70;93.30;;;6.97;67.58;96157.06;4999261;28;20054;-47
2021/11/04 05:14:13;;;;;;;3.63;3.03;;;6.80;92.80;;;6.97;68.40;96160.53;4968101;28;20064;-47
2021/11/04 05:16:41;;;;;;;4.27;3.20;;;6.70;92.60;;;6.99;67.96;96161.16;4969076;28;20058;-51
2021/11/04 05:19:10;;;;;;;6.60;5.63;;;6.80;92.70;;;7.00;67.60;96165.47;4970181;28;20268;-47
2021/11/04 05:21:38;;;;;;;7.87;7.07;;;6.80;92.10;;;7.03;67.96;96172.22;4985173;28;20046;-49
2021/11/04 05:24:08;;;;;;;6.07;5.10;;;6.80;91.70;;;7.05;67.50;96175.53;4968289;28;20059;-47
2021/11/04 05:26:37;;;;;;;4.50;3.37;;;6.80;93.50;;;7.12;67.51;96178.31;4969728;28;20050;-46
2021/11/04 05:29:05;;;;;;;4.87;2.90;;;6.90;92.50;;;7.10;67.86;96175.84;4968186;28;20055;-47
2021/11/04 05:31:33;;;;;;;4.20;3.10;;;6.80;92.10;;;7.09;67.62;96184.75;4967911;28;20069;-50
2021/11/04 05:34:03;;;;;;;4.10;2.97;;;6.90;92.40;;;7.04;67.18;96187.94;4968578;28;20047;-47
2021/11/04 05:36:30;;;;;;;2.97;1.97;;;6.70;92.50;;;7.11;67.78;96180.09;4966457;28;20066;-47
2021/11/04 05:38:59;;;;;;;4.53;3.67;;;6.80;92.90;;;7.03;67.56;96185.47;4968644;28;20073;-49
2021/11/04 05:41:28;;;;;;;3.17;2.70;;;6.80;91.80;;;7.08;67.27;96189.22;4968509;28;20048;-45
2021/11/04 05:43:55;;;;;;;3.07;2.07;;;6.80;92.20;;;7.04;67.40;96195.88;4968586;28;20047;-49
2021/11/04 05:46:23;;;;;;;2.33;2.07;;;6.80;92.60;;;7.10;67.93;96191.72;4999073;28;20043;-46
2021/11/04 05:48:51;;;;;;;3.23;2.30;;;6.80;93.50;;;7.10;67.15;96199.66;4969346;28;20050;-46
2021/11/04 05:51:19;;;;;;;2.90;1.90;;;6.70;93.00;;;7.12;67.86;96199.47;4982777;28;20069;-46
2021/11/04 05:53:47;;;;;;;2.17;1.90;;;6.80;92.80;;;7.13;67.76;96198.47;4967712;28;20073;-49
2021/11/04 05:56:18;;;;;;;2.27;1.87;;;6.80;93.10;;;7.16;67.43;96204.25;4967581;28;20055;-47
2021/11/04 05:58:46;;;;;;;2.40;1.73;;;6.90;92.90;;;7.17;67.33;96203.22;4968278;28;20272;-47
2021/11/04 06:01:14;;;;;;;2.23;1.70;;;6.90;92.40;;;7.18;67.28;96206.72;4968371;28;20057;-46
2021/11/04 06:14:01;;;;;;;2.77;2.00;;;6.60;92.30;;;6.97;67.37;96236.44;4968983;28;20257;-49
2021/11/04 06:16:29;;;;;;;2.63;1.97;;;6.60;93.30;;;6.98;67.38;96233.63;4969047;28;20050;-48
2021/11/04 06:18:57;;;;;;;2.33;1.77;;;6.70;93.30;;;6.92;67.84;96233.47;4966757;28;20058;-48
2021/11/04 06:21:25;;;;;;;3.07;2.50;;;6.60;93.00;;;6.98;67.75;96238.91;4968954;28;20067;-48
2021/11/04 06:23:53;;;;;;;3.97;2.40;;;6.70;93.80;;;6.96;67.39;96248.00;4967976;28;20372;-47
2021/11/04 06:26:21;;;;;;;2.13;1.60;;;6.60;93.60;;;6.84;68.19;96247.56;4966936;28;20372;-50
2021/11/04 06:28:49;;;;;;;4.87;1.80;;;6.60;93.10;;;6.96;67.79;96250.66;4967485;28;20066;-47
2021/11/04 06:31:17;;;;;;;2.60;1.53;;;6.60;93.90;;;6.98;67.52;96259.22;4967330;28;20062;-46
2021/11/04 06:33:45;;;;;;;1.57;1.20;;;6.70;93.80;;;6.96;67.83;96262.06;4966871;28;20126;-48
2021/11/04 06:36:13;;;;;;;1.73;1.50;;;6.80;93.00;;;6.98;67.65;96265.38;4965725;28;20054;-48
2021/11/04 06:38:40;;;;;;;1.83;1.40;;;6.70;93.70;;;6.94;68.05;96261.44;4967866;28;20064;-47
2021/11/04 06:41:09;;;;;;;3.10;1.90;;;6.60;93.50;;;6.97;67.75;96255.78;4998095;28;20226;-49
2021/11/04 07:03:36;;;;;;;1.40;1.13;;;6.70;93.00;;;6.60;68.29;96283.69;4982887;28;20041;-47
2021/11/04 07:06:08;;;;;;;1.47;1.10;;;6.50;93.00;;;6.66;68.06;96290.13;4962611;28;20078;-47
2021/11/04 07:09:00;;;;;;;2.13;1.67;;;6.40;93.80;;;6.53;68.67;96289.81;4967538;28;20057;-46
2021/11/04 07:11:33;;;;;;;1.53;1.20;;;6.40;93.90;;;6.62;68.56;96299.38;4967186;28;20062;-47
2021/11/04 07:14:02;;;;;;;2.60;1.20;;;6.40;94.30;;;6.59;68.48;96302.34;4968288;28;20056;-48
2021/11/04 07:16:30;;;;;;;1.40;1.17;;;6.40;93.70;;;6.69;68.66;96308.31;4965318;28;20058;-45
2021/11/04 07:18:59;;;;;;;1.60;1.30;;;6.60;93.50;;;6.73;68.41;96301.69;4964428;28;20122;-45
2021/11/04 07:22:10;;;;;;;2.53;2.00;;;6.50;93.40;;;6.80;67.81;96307.91;4966717;28;20068;-45
2021/11/04 07:25:01;;;;;;;2.00;1.60;;;6.70;92.70;;;6.80;67.48;96321.13;4966657;28;20388;-48
2021/11/04 07:27:45;;;;;;;2.20;1.80;;;6.60;92.90;;;6.71;68.31;96322.19;4966731;28;20055;-46
2021/11/04 07:30:17;;;;;;;1.95;1.73;;;6.50;92.80;;;6.77;68.20;96323.31;4967247;28;20047;-45
2021/11/04 07:32:55;;;;;;;2.63;2.00;;;6.60;93.40;;;6.86;68.06;96323.13;4966220;28;20070;-46
2021/11/04 07:35:27;;;;;;;2.63;1.80;;;6.70;93.20;;;6.94;67.80;96335.50;4965971;28;20309;-45
2021/11/04 07:37:57;;;;;;;3.73;1.93;;;6.90;92.80;;;6.95;67.45;96342.44;4968035;28;20053;-48
2021/11/04 07:40:28;;;;;;;1.93;1.53;;;6.80;92.30;;;6.99;67.74;96338.44;4966205;28;20085;-46
2021/11/04 07:42:57;;;;;;;2.50;1.80;;;6.80;92.80;;;7.02;67.57;96340.78;4966397;28;20146;-46
2021/11/04 07:45:28;;;;;;;2.67;2.03;;;6.80;92.40;;;7.06;67.93;96344.72;4965804;28;20057;-46
2021/11/04 07:47:57;;;;;;;3.87;2.00;;;6.90;92.50;;;7.03;67.78;96347.69;4965610;28;20061;-46
2021/11/04 07:50:29;;;;;;;3.20;2.17;;;6.90;92.40;;;7.08;67.82;96349.84;4968054;28;20073;-46
2021/11/04 07:52:58;;;;;;;3.80;2.60;;;6.90;92.80;;;7.03;68.13;96347.69;4966763;28;20062;-47
2021/11/04 07:55:26;;;;;;;4.57;3.17;;;6.90;92.80;;;7.05;68.54;96351.00;4966774;28;20058;-46
2021/11/04 07:57:54;;;;;;;4.00;2.93;;;6.90;93.60;;;7.06;68.60;96360.59;4965143;28;20059;-46
2021/11/04 08:00:28;;;;;;;5.63;4.00;;;6.90;94.00;;;7.05;68.24;96358.94;4965000;28;20069;-46
2021/11/04 08:02:56;;;;;;;5.47;3.80;;;6.90;94.20;;;7.08;68.48;96365.72;4968631;28;20048;-46
2021/11/04 08:05:25;;;;;;;3.93;2.80;;;6.90;94.70;;;7.04;68.26;96364.41;4969449;28;20057;-46
2021/11/04 08:07:53;;;;;;;3.97;3.40;;;6.80;94.60;;;7.08;68.67;96374.47;4969487;28;20062;-45
2021/11/04 08:10:23;;;;;;;4.40;2.80;;;6.90;94.80;;;7.09;68.86;96380.59;4970112;28;20054;-45
2021/11/04 08:12:51;;;;;;;3.97;2.70;;;6.90;94.90;;;7.01;69.02;96376.16;4969795;28;20480;-46
2021/11/04 08:15:19;;;;;;;3.60;2.83;;;6.90;95.20;;;6.96;68.94;96377.66;4970847;28;20240;-48
2021/11/04 08:17:46;;;;;;;5.30;4.10;;;6.80;96.00;;;6.93;69.14;96380.66;4969954;28;20057;-46
2021/11/04 08:20:14;;;;;;;3.97;2.37;;;6.80;96.40;;;6.66;70.62;96386.16;4969737;28;20069;-45
2021/11/04 08:22:42;;;;;;;3.80;2.67;;;6.60;97.50;;;6.67;70.60;96393.09;4968920;28;20441;-46
2021/11/04 08:25:10;;;;;;;4.10;2.30;;;6.50;99.00;;;6.70;70.89;96386.63;4968335;28;20054;-47
2021/11/04 08:27:38;;;;;;;2.90;2.17;;;6.50;99.00;;;6.76;70.84;96385.97;4968415;28;20345;-46
2021/11/04 08:30:06;;;;;;;4.17;2.30;;;6.60;99.00;;;6.81;70.45;96391.59;4968910;28;20261;-46
2021/11/04 08:32:34;;;;;;;3.17;2.30;;;6.60;98.80;;;6.87;70.21;96395.38;4969752;28;20060;-46
2021/11/04 08:35:02;;;;;;;4.00;2.93;;;6.70;98.80;;;6.83;71.54;96399.34;4968379;28;20068;-46
2021/11/04 08:37:30;;;;;;;2.80;2.20;;;6.70;99.20;;;6.94;70.16;96401.66;4968280;28;20054;-46
2021/11/04 08:39:59;;;;;;;2.80;1.80;;;6.80;98.60;;;6.68;72.27;96409.78;4968715;28;20062;-45
2021/11/04 08:42:31;;;;;;;2.83;1.80;;;6.60;99.70;;;6.85;70.80;96406.13;4968394;28;20165;-46
2021/11/04 08:44:59;;;;;;;3.37;1.73;;;6.70;99.60;;;6.80;71.03;96418.19;4970450;28;20065;-45
2021/11/04 08:47:28;;;;;;;2.13;1.67;;;6.70;99.70;;;6.70;72.18;96408.63;4969681;28;20046;-45
2021/11/04 08:49:58;;;;;;;2.20;1.40;;;6.70;99.90;;;6.82;71.23;96421.50;4968739;28;20047;-46
2021/11/04 08:52:28;;;;;;;1.93;1.50;;;6.70;99.90;;;6.90;71.24;96424.13;4968827;28;20065;-47
2021/11/04 08:54:55;;;;;;;2.00;1.37;;;6.80;99.90;;;6.70;72.42;96432.41;4969214;28;20069;-46
2021/11/04 08:57:23;;;;;;;1.87;1.33;;;6.60;99.90;;;6.67;71.90;96429.31;4968181;28;20413;-49
2021/11/04 08:59:51;;;;;;;2.33;1.80;;;6.50;99.90;;;6.69;72.31;96437.91;4966717;28;20053;-48
2021/11/04 09:02:21;;;;;;;1.87;1.33;;;6.50;99.90;;;6.70;72.47;96427.13;4967757;28;20058;-49
2021/11/04 09:04:49;;;;;;;1.70;1.30;;;6.60;99.90;;;6.78;71.98;96434.22;4968031;28;20054;-48
2021/11/04 09:07:20;;;;;;;2.73;1.57;;;6.70;99.90;;;6.86;71.61;96430.75;4968665;28;20063;-49
2021/11/04 09:09:49;;;;;;;1.53;1.23;;;6.80;99.90;;;6.80;72.03;96447.31;4967283;28;20371;-47
2021/11/04 09:12:17;;;;;;;1.70;1.30;;;6.70;99.90;;;6.56;73.38;96445.50;4969068;28;20058;-47
2021/11/04 09:14:46;;;;;;;1.83;1.47;;;6.50;99.90;;;6.78;72.15;96444.00;4966732;28;20329;-49
2021/11/04 09:17:14;;;;;;;2.07;1.70;;;6.60;99.90;;;6.83;72.14;96454.91;4965998;28;20058;-49
2021/11/04 09:19:42;;;;;;;1.57;1.20;;;6.70;99.90;;;6.85;72.19;96458.22;4967027;28;20074;-48
2021/11/04 09:22:10;;;;;;;2.60;1.80;;;6.70;99.90;;;6.62;72.68;96455.41;4967468;28;20050;-49
2021/11/04 09:24:39;;;;;;;1.80;1.33;;;6.70;99.90;;;6.52;73.76;96465.34;4966932;28;20047;-51
2021/11/04 09:27:07;;;;;;;1.70;1.40;;;6.60;99.90;;;6.65;72.79;96460.34;4967962;28;20051;-47
2021/11/04 09:29:36;;;;;;;2.37;1.53;;;6.60;99.90;;;6.62;72.77;96471.28;4966836;28;20057;-48
2021/11/04 09:32:08;;;;;;;2.57;1.40;;;6.60;99.90;;;6.61;73.36;96472.25;4969141;28;20241;-47
2021/11/04 09:35:00;;;;;;;3.27;1.70;;;6.60;99.90;;;6.35;73.77;96477.72;4968448;28;20055;-46
2021/11/04 09:37:28;;;;;;;2.87;1.70;;;6.40;99.90;;;6.59;72.81;96476.88;4968661;28;20383;-52
2021/11/04 09:39:56;;;;;;;1.90;1.40;;;6.50;99.90;;;6.70;72.85;96487.16;4967915;28;20054;-48
2021/11/04 09:42:25;;;;;;;2.00;1.37;;;6.70;99.90;;;6.78;72.40;96489.78;4968622;28;20061;-46
2021/11/04 09:44:55;;;;;;;2.80;1.50;;;6.80;99.90;;;6.73;72.35;96500.06;4969547;28;20054;-48
2021/11/04 09:47:30;;;;;;;2.77;1.63;;;6.80;99.30;;;6.70;72.30;96503.03;4967030;28;20268;-46
2021/11/04 09:50:01;;;;;;;2.60;1.60;;;6.70;99.10;;;6.70;72.38;96511.78;4969205;28;20245;-47
2021/11/04 09:52:33;;;;;;;2.67;1.80;;;6.70;99.90;;;6.85;72.21;96514.59;4966393;28;20065;-46
2021/11/04 09:55:18;;;;;;;3.73;2.40;;;6.90;99.90;;;6.94;72.36;96510.16;4968168;28;20435;-49
2021/11/04 09:57:52;;;;;;;6.13;2.97;;;6.90;99.90;;;6.89;72.51;96507.16;4967362;28;20074;-50
2021/11/04 10:00:30;;;;;;;3.27;2.17;;;6.90;99.90;;;7.04;72.46;96520.56;4967278;28;20058;-48
2021/11/04 10:03:08;;;;;;;4.43;2.73;;;7.00;99.80;;;7.06;72.21;96519.38;4967601;28;20047;-49
2021/11/04 10:05:46;;;;;;;4.37;2.80;;;7.00;99.50;;;6.92;72.79;96525.38;4967250;28;20069;-46
2021/11/04 10:08:35;;;;;;;4.60;3.07;;;7.00;99.80;;;7.02;72.54;96525.19;4967567;28;20067;-49
2021/11/04 10:11:11;;;;;;;6.37;3.77;;;6.90;99.70;;;6.84;73.21;96533.28;4968744;28;20047;-47
2021/11/04 10:13:41;;;;;;;8.90;5.13;;;6.80;99.90;;;6.76;72.95;96543.84;4969395;28;20415;-46
2021/11/04 10:16:11;;;;;;;10.67;6.97;;;6.70;99.90;;;6.85;73.24;96553.47;4967535;28;20047;-46
2021/11/04 10:18:45;;;;;;;11.80;7.37;;;6.70;99.90;;;6.93;72.63;96552.63;4965652;28;20062;-48
2021/11/04 10:21:36;;;;;;;21.97;10.57;;;6.80;99.90;;;6.96;73.29;96544.34;4968464;28;20087;-50
2021/11/04 10:24:08;;;;;;;12.77;8.73;;;6.90;99.90;;;6.78;74.12;96555.91;4967423;28;20050;-48
2021/11/04 10:26:38;;;;;;;14.23;9.03;;;6.80;99.90;;;6.67;73.88;96559.72;4967010;28;20051;-48
2021/11/04 10:29:09;;;;;;;14.70;10.03;;;6.70;99.90;;;6.71;74.04;96565.53;4968384;28;20253;-48
2021/11/04 10:31:49;;;;;;;13.30;8.30;;;6.70;99.90;;;6.59;74.36;96569.44;4967380;28;20057;-47
2021/11/04 10:34:34;;;;;;;12.30;8.23;;;6.60;99.90;;;6.60;73.91;96579.88;4966394;28;20078;-49
2021/11/04 10:37:10;;;;;;;20.13;8.87;;;6.60;99.90;;;6.65;73.89;96580.22;4967572;28;20240;-47
2021/11/04 10:39:42;;;;;;;14.90;9.83;;;6.70;99.90;;;6.61;74.45;96591.25;4966849;28;20053;-46
2021/11/04 10:42:11;;;;;;;15.83;9.90;;;6.60;99.90;;;6.57;74.50;96579.38;4967184;28;20073;-48
2021/11/04 10:44:39;;;;;;;16.77;9.23;;;6.60;99.90;;;6.45;75.33;96592.88;4967341;28;20057;-48
2021/11/04 10:47:08;;;;;;;13.97;9.77;;;6.60;99.90;;;6.52;74.58;96600.19;4967707;28;20379;-49
2021/11/04 10:49:46;;;;;;;15.30;9.43;;;6.60;99.90;;;6.57;74.45;96604.00;4967681;28;20043;-46
2021/11/04 10:52:24;;;;;;;15.30;9.53;;;6.60;99.90;;;6.54;74.76;96603.50;4968047;28;20504;-46
2021/11/04 10:54:52;;;;;;;13.23;9.10;;;6.50;99.90;;;6.54;74.79;96603.50;4966480;28;20050;-48
2021/11/04 10:57:33;;;;;;;14.57;9.20;;;6.60;99.90;;;6.51;75.32;96599.34;4967736;28;20050;-49
2021/11/04 11:00:38;;;;;;;13.93;9.50;;;6.60;99.90;;;6.59;74.59;96607.31;4968004;28;20061;-50
2021/11/04 11:03:10;;;;;;;13.77;8.25;;;6.60;99.90;;;6.61;74.54;96609.78;4935918;28;20375;-46
2021/11/04 11:05:42;;;;;;;14.77;8.47;;;6.60;99.90;;;6.49;74.50;96612.75;4968681;28;20059;-47
2021/11/04 11:08:10;;;;;;;15.07;9.87;;;6.60;99.90;;;6.57;74.61;96616.38;4966187;28;20065;-48
2021/11/04 11:10:43;;;;;;;14.60;9.43;;;6.60;99.90;;;6.65;74.69;96619.91;4965358;28;20050;-47
2021/11/04 11:13:11;;;;;;;11.90;8.50;;;6.60;99.90;;;6.64;75.00;96622.69;4966285;28;20057;-47
2021/11/04 11:15:42;;;;;;;12.43;8.57;;;6.70;99.90;;;6.62;74.44;96638.72;4966976;28;20062;-47
2021/11/04 11:18:11;;;;;;;12.53;7.90;;;6.70;99.90;;;6.64;74.25;96634.09;4966268;28;20077;-48